createdAt,value
2022-10-01T00:01:15.731Z,6.97
2022-10-01T00:03:44.913Z,6.72
2022-10-01T00:06:14.723Z,6.68
2022-10-01T00:08:42.377Z,7.65
2022-10-01T00:11:11.977Z,6.80
2022-10-01T00:13:43.775Z,5.75
2022-10-01T00:16:13.702Z,5.28
2022-10-01T00:18:42.702Z,7.43
2022-10-01T00:21:14.842Z,5.15
2022-10-01T00:23:46.151Z,6.70
2022-10-01T00:26:18.198Z,6.63
2022-10-01T00:28:47.598Z,6.35
2022-10-01T00:31:15.903Z,6.65
2022-10-01T00:33:47.090Z,7.82
2022-10-01T00:36:13.678Z,5.65
2022-10-01T00:38:40.761Z,7.10
2022-10-01T00:41:08.069Z,6.57
2022-10-01T00:43:59.866Z,5.97
2022-10-01T00:46:41.075Z,9.48
2022-10-01T00:49:15.071Z,8.52
2022-10-01T00:51:45.565Z,8.40
2022-10-01T00:54:16.944Z,6.80
2022-10-01T00:56:44.724Z,5.72
2022-10-01T00:59:12.807Z,6.30
2022-10-01T01:01:39.451Z,6.10
2022-10-01T01:04:16.821Z,6.03
2022-10-01T01:06:55.760Z,6.60
2022-10-01T01:09:25.808Z,5.75
2022-10-01T01:12:07.801Z,6.13
2022-10-01T01:15:01.700Z,5.20
2022-10-01T01:17:40.377Z,7.10
2022-10-01T01:20:19.084Z,6.78
2022-10-01T01:22:59.723Z,5.03
2022-10-01T01:25:36.769Z,5.10
2022-10-01T01:28:20.009Z,7.57
2022-10-01T01:30:50.651Z,6.20
2022-10-01T01:33:20.705Z,6.40
2022-10-01T01:35:53.023Z,5.43
2022-10-01T01:38:27.951Z,6.40
2022-10-01T01:40:58.521Z,5.28
2022-10-01T01:43:31.327Z,7.28
2022-10-01T01:46:01.228Z,4.70
2022-10-01T01:48:30.791Z,5.50
2022-10-01T01:51:11.782Z,4.97
2022-10-01T01:53:43.028Z,6.63
2022-10-01T01:56:09.700Z,4.53
2022-10-01T01:58:37.867Z,5.82
2022-10-01T02:01:05.098Z,5.13
2022-10-01T02:03:35.009Z,4.50
2022-10-01T02:06:19.171Z,4.38
2022-10-01T02:09:11.335Z,5.70
2022-10-01T02:11:50.428Z,5.25
2022-10-01T02:14:30.905Z,4.05
2022-10-01T02:17:06.055Z,6.10
2022-10-01T02:19:48.813Z,5.47
2022-10-01T02:22:23.707Z,4.53
2022-10-01T02:24:59.879Z,3.97
2022-10-01T02:27:33.251Z,4.63
2022-10-01T02:30:07.797Z,3.33
2022-10-01T02:32:37.819Z,5.43
2022-10-01T02:35:09.569Z,3.97
2022-10-01T02:37:37.687Z,3.92
2022-10-01T02:40:08.690Z,3.22
2022-10-01T02:42:37.728Z,2.55
2022-10-01T02:45:10.159Z,2.35
2022-10-01T02:47:41.694Z,4.80
2022-10-01T02:50:09.421Z,4.10
2022-10-01T02:52:45.356Z,2.28
2022-10-01T02:55:17.346Z,2.58
2022-10-01T02:57:43.922Z,2.33
2022-10-01T03:00:13.561Z,2.75
2022-10-01T03:02:40.130Z,2.88
2022-10-01T03:05:07.318Z,2.17
2022-10-01T03:07:35.651Z,2.17
2022-10-01T03:10:04.691Z,3.72
2022-10-01T03:12:31.660Z,1.85
2022-10-01T03:14:58.164Z,2.10
2022-10-01T03:17:24.705Z,1.88
2022-10-01T03:19:51.232Z,3.05
2022-10-01T03:22:22.311Z,2.10
2022-10-01T03:24:51.726Z,2.72
2022-10-01T03:27:19.119Z,1.65
2022-10-01T03:29:46.158Z,1.40
2022-10-01T03:32:13.024Z,1.63
2022-10-01T03:34:40.559Z,1.90
2022-10-01T03:37:07.257Z,1.40
2022-10-01T03:39:34.236Z,3.10
2022-10-01T03:42:00.709Z,3.33
2022-10-01T03:44:30.083Z,1.20
2022-10-01T03:46:56.558Z,2.30
2022-10-01T03:49:23.599Z,1.50
2022-10-01T03:51:50.498Z,3.53
2022-10-01T03:54:18.396Z,1.10
2022-10-01T03:56:44.919Z,1.13
2022-10-01T03:59:11.410Z,1.73
2022-10-01T04:01:39.376Z,0.98
2022-10-01T04:04:07.162Z,2.60
2022-10-01T04:06:33.718Z,1.02
2022-10-01T04:09:00.212Z,1.17
2022-10-01T04:11:26.842Z,1.00
2022-10-01T04:13:54.148Z,1.90
2022-10-01T04:16:20.720Z,1.35
2022-10-01T04:18:47.253Z,0.85
2022-10-01T04:21:15.330Z,1.20
2022-10-01T04:23:46.337Z,1.27
2022-10-01T04:26:12.918Z,2.65
2022-10-01T04:28:39.419Z,1.42
2022-10-01T04:31:24.620Z,2.92
2022-10-01T04:33:56.255Z,1.20
2022-10-01T04:36:24.490Z,1.77
2022-10-01T04:38:53.358Z,2.33
2022-10-01T04:41:21.323Z,1.58
2022-10-01T04:43:50.989Z,1.42
2022-10-01T04:46:17.884Z,1.20
2022-10-01T04:48:44.454Z,1.40
2022-10-01T04:51:11.089Z,1.60
2022-10-01T04:53:55.518Z,1.85
2022-10-01T04:56:22.131Z,0.68
2022-10-01T04:58:49.106Z,1.17
2022-10-01T05:01:15.626Z,2.80
2022-10-01T05:03:44.245Z,0.70
2022-10-01T05:06:10.766Z,1.05
2022-10-01T05:08:37.960Z,0.85
2022-10-01T05:11:04.813Z,2.55
2022-10-01T05:13:31.865Z,1.58
2022-10-01T05:16:02.993Z,1.17
2022-10-01T05:18:30.155Z,2.15
2022-10-01T05:20:56.655Z,1.40
2022-10-01T05:23:23.125Z,1.25
2022-10-01T05:25:51.109Z,1.80
2022-10-01T05:28:22.215Z,0.80
2022-10-01T05:30:50.960Z,1.60
2022-10-01T05:33:17.497Z,1.17
2022-10-01T05:35:45.494Z,1.10
2022-10-01T05:38:12.012Z,2.13
2022-10-01T05:40:38.502Z,2.05
2022-10-01T05:43:04.975Z,1.10
2022-10-01T05:45:32.363Z,1.10
2022-10-01T05:48:01.326Z,2.65
2022-10-01T05:50:31.389Z,1.30
2022-10-01T05:52:58.193Z,1.40
2022-10-01T05:55:25.083Z,1.70
2022-10-01T05:58:02.341Z,1.80
2022-10-01T06:00:30.867Z,3.53
2022-10-01T06:03:00.788Z,2.38
2022-10-01T06:05:29.471Z,2.13
2022-10-01T06:07:56.461Z,1.60
2022-10-01T06:10:24.538Z,2.67
2022-10-01T06:12:51.628Z,2.20
2022-10-01T06:15:21.961Z,2.63
2022-10-01T06:17:48.428Z,2.30
2022-10-01T06:20:19.388Z,2.10
2022-10-01T06:22:53.902Z,3.60
2022-10-01T06:25:21.949Z,2.23
2022-10-01T06:27:57.807Z,3.83
2022-10-01T06:30:27.195Z,3.10
2022-10-01T06:33:03.864Z,3.78
2022-10-01T06:35:34.838Z,3.13
2022-10-01T06:38:04.746Z,3.00
2022-10-01T06:40:31.345Z,4.43
2022-10-01T06:42:58.683Z,3.40
2022-10-01T06:45:29.658Z,4.35
2022-10-01T06:48:03.601Z,3.92
2022-10-01T06:50:31.530Z,5.43
2022-10-01T06:52:58.886Z,6.00
2022-10-01T06:55:30.047Z,5.05
2022-10-01T06:58:05.457Z,5.05
2022-10-01T07:02:59.572Z,4.35
2022-10-01T07:05:27.910Z,4.80
2022-10-01T07:07:54.537Z,5.57
2022-10-01T07:10:23.136Z,5.10
2022-10-01T07:12:50.445Z,5.10
2022-10-01T07:15:21.112Z,6.18
2022-10-01T07:17:50.214Z,5.05
2022-10-01T07:20:19.782Z,5.18
2022-10-01T07:22:48.724Z,5.90
2022-10-01T07:25:15.621Z,7.47
2022-10-01T07:27:42.114Z,5.28
2022-10-01T07:30:09.122Z,4.70
2022-10-01T07:32:35.590Z,4.63
2022-10-01T07:35:03.575Z,10.18
2022-10-01T07:37:30.077Z,6.63
2022-10-01T07:39:56.534Z,7.40
2022-10-01T07:42:22.998Z,5.78
2022-10-01T07:44:51.029Z,7.78
2022-10-01T07:47:17.487Z,7.10
2022-10-01T07:49:43.955Z,9.05
2022-10-01T07:52:13.285Z,7.35
2022-10-01T07:54:40.260Z,6.55
2022-10-01T07:57:06.701Z,9.38
2022-10-01T07:59:33.447Z,9.70
2022-10-01T08:02:00.910Z,7.03
2022-10-01T08:04:46.081Z,10.00
2022-10-01T08:07:12.555Z,8.00
2022-10-01T08:09:39.760Z,8.02
2022-10-01T08:12:06.277Z,8.55
2022-10-01T08:14:34.932Z,10.07
2022-10-01T08:17:01.463Z,9.07
2022-10-01T08:19:28.066Z,11.05
2022-10-01T08:21:54.521Z,10.05
2022-10-01T08:24:25.386Z,10.38
2022-10-01T08:26:55.878Z,8.30
2022-10-01T08:29:22.437Z,7.85
2022-10-01T08:31:49.107Z,10.02
2022-10-01T08:34:20.209Z,9.65
2022-10-01T08:36:51.656Z,6.82
2022-10-01T08:39:18.538Z,7.88
2022-10-01T08:41:54.041Z,5.57
2022-10-01T08:44:27.792Z,5.45
2022-10-01T08:47:00.844Z,7.28
2022-10-01T08:49:34.407Z,6.95
2022-10-01T08:52:15.632Z,10.73
2022-10-01T08:54:48.221Z,8.57
2022-10-01T08:57:38.352Z,10.55
2022-10-01T09:00:11.692Z,12.75
2022-10-01T09:02:40.664Z,11.73
2022-10-01T09:05:25.328Z,11.60
2022-10-01T09:08:06.815Z,11.75
2022-10-01T09:10:49.797Z,12.40
2022-10-01T09:14:00.655Z,12.13
2022-10-01T09:16:36.320Z,13.52
2022-10-01T09:19:31.828Z,12.32
2022-10-01T09:21:58.296Z,10.57
2022-10-01T09:24:50.022Z,12.85
2022-10-01T09:27:21.470Z,11.05
2022-10-01T09:30:07.457Z,10.25
2022-10-01T09:32:46.832Z,11.48
2022-10-01T09:35:23.854Z,8.40
2022-10-01T09:38:02.204Z,7.07
2022-10-01T09:40:46.284Z,8.88
2022-10-01T09:43:12.998Z,7.65
2022-10-01T09:45:41.003Z,9.43
2022-10-01T09:48:26.435Z,11.15
2022-10-01T09:50:59.051Z,13.45
2022-10-01T09:56:42.477Z,9.35
2022-10-01T09:59:17.305Z,7.82
2022-10-01T10:01:51.820Z,6.75
2022-10-01T10:04:23.279Z,7.30
2022-10-01T10:07:01.393Z,7.40
2022-10-01T10:09:33.622Z,9.10
2022-10-01T10:12:00.902Z,7.53
2022-10-01T10:14:35.122Z,7.88
2022-10-01T10:17:11.141Z,9.98
2022-10-01T10:19:38.397Z,9.18
2022-10-01T10:22:23.183Z,7.97
2022-10-01T10:24:50.344Z,8.93
2022-10-01T10:27:26.587Z,11.60
2022-10-01T10:30:13.628Z,9.20
2022-10-01T10:32:41.577Z,10.90
2022-10-01T10:35:14.135Z,8.32
2022-10-01T10:37:54.725Z,6.53
2022-10-01T10:40:29.330Z,6.57
2022-10-01T10:42:58.606Z,11.30
2022-10-01T10:45:33.233Z,7.95
2022-10-01T10:48:01.878Z,7.22
2022-10-01T10:50:32.387Z,8.52
2022-10-01T10:52:59.252Z,8.40
2022-10-01T10:55:30.967Z,7.85
2022-10-01T10:58:11.667Z,10.02
2022-10-01T11:00:46.263Z,8.70
2022-10-01T11:03:15.613Z,9.82
2022-10-01T11:05:43.502Z,8.63
2022-10-01T11:08:18.931Z,12.73
2022-10-01T11:11:02.169Z,7.40
2022-10-01T11:13:43.773Z,10.23
2022-10-01T11:16:19.016Z,6.65
2022-10-01T11:21:42.062Z,5.82
2022-10-01T11:24:33.138Z,8.60
2022-10-01T11:27:40.990Z,8.13
2022-10-01T11:30:15.357Z,10.55
2022-10-01T11:32:47.875Z,7.60
2022-10-01T11:35:40.043Z,10.52
2022-10-01T11:38:18.893Z,7.75
2022-10-01T11:41:01.070Z,7.97
2022-10-01T11:46:38.504Z,5.13
2022-10-01T11:49:14.581Z,7.82
2022-10-01T11:51:49.746Z,10.73
2022-10-01T11:57:13.874Z,8.93
2022-10-01T11:59:56.185Z,7.65
2022-10-01T12:02:33.315Z,11.40
2022-10-01T12:05:22.932Z,9.18
2022-10-01T12:08:18.859Z,11.35
2022-10-01T12:10:59.163Z,12.55
2022-10-01T12:13:32.936Z,5.63
2022-10-01T12:16:18.695Z,8.18
2022-10-01T12:18:54.403Z,12.07
2022-10-01T12:21:29.806Z,9.68
2022-10-01T12:24:05.582Z,6.78
2022-10-01T12:26:32.362Z,8.32
2022-10-01T12:29:06.758Z,6.75
2022-10-01T12:31:53.789Z,10.18
2022-10-01T12:34:38.715Z,7.10
2022-10-01T12:37:33.184Z,7.00
2022-10-01T12:40:18.715Z,9.38
2022-10-01T12:42:54.241Z,9.15
2022-10-01T12:46:06.572Z,11.35
2022-10-01T12:49:08.683Z,9.15
2022-10-01T12:51:52.444Z,7.57
2022-10-01T12:54:41.778Z,9.18
2022-10-01T12:57:36.809Z,9.32
2022-10-01T13:00:13.382Z,6.18
2022-10-01T13:02:53.366Z,11.40
2022-10-01T13:05:43.498Z,10.75
2022-10-01T13:08:16.103Z,7.60
2022-10-01T13:11:20.636Z,12.10
2022-10-01T13:13:53.851Z,5.68
2022-10-01T13:16:48.113Z,6.57
2022-10-01T13:19:48.105Z,11.35
2022-10-01T13:22:28.366Z,8.90
2022-10-01T13:25:18.841Z,8.13
2022-10-01T13:28:16.856Z,5.70
2022-10-01T13:31:14.879Z,5.10
2022-10-01T13:34:01.727Z,6.45
2022-10-01T13:36:30.637Z,6.43
2022-10-01T13:38:57.394Z,9.00
2022-10-01T13:41:29.054Z,10.23
2022-10-01T13:44:21.897Z,8.05
2022-10-01T13:46:55.882Z,4.97
2022-10-01T13:49:26.830Z,5.93
2022-10-01T13:51:54.650Z,5.63
2022-10-01T13:54:29.581Z,5.85
2022-10-01T13:57:07.717Z,10.80
2022-10-01T13:59:36.278Z,6.75
2022-10-01T14:02:03.993Z,7.28
2022-10-01T14:04:43.664Z,5.57
2022-10-01T14:07:26.545Z,5.13
2022-10-01T14:09:57.859Z,7.18
2022-10-01T14:12:49.498Z,5.97
2022-10-01T14:15:42.823Z,9.45
2022-10-01T14:18:20.851Z,8.18
2022-10-01T14:21:12.321Z,8.60
2022-10-01T14:24:03.216Z,7.30
2022-10-01T14:26:53.930Z,5.07
2022-10-01T14:29:45.231Z,5.95
2022-10-01T14:32:33.406Z,11.73
2022-10-01T14:35:30.393Z,5.22
2022-10-01T14:38:03.190Z,10.43
2022-10-01T14:40:41.386Z,6.50
2022-10-01T14:43:46.191Z,7.57
2022-10-01T14:46:16.527Z,9.43
2022-10-01T14:48:44.210Z,8.75
2022-10-01T14:51:26.931Z,8.57
2022-10-01T14:53:58.737Z,6.80
2022-10-01T14:56:27.026Z,8.63
2022-10-01T14:59:02.663Z,8.23
2022-10-01T15:01:29.264Z,6.97
2022-10-01T15:03:57.769Z,5.72
2022-10-01T15:06:30.308Z,5.82
2022-10-01T15:09:14.892Z,6.00
2022-10-01T15:11:44.671Z,9.82
2022-10-01T15:14:18.813Z,5.88
2022-10-01T15:16:46.259Z,4.65
2022-10-01T15:19:19.858Z,6.32
2022-10-01T15:21:53.412Z,8.20
2022-10-01T15:24:31.840Z,10.45
2022-10-01T15:26:58.814Z,8.75
2022-10-01T15:29:25.406Z,7.13
2022-10-01T15:31:53.612Z,9.70
2022-10-01T15:34:23.900Z,7.35
2022-10-01T15:36:51.266Z,9.95
2022-10-01T15:39:38.361Z,5.07
2022-10-01T15:42:31.853Z,8.25
2022-10-01T15:45:26.042Z,7.05
2022-10-01T15:47:57.296Z,9.73
2022-10-01T15:50:32.630Z,6.13
2022-10-01T15:53:06.149Z,10.52
2022-10-01T15:55:49.420Z,8.40
2022-10-01T15:58:19.911Z,6.70
2022-10-01T16:01:13.694Z,6.38
2022-10-01T16:03:50.446Z,7.85
2022-10-01T16:06:24.273Z,9.88
2022-10-01T16:09:15.876Z,6.63
2022-10-01T16:12:18.601Z,10.68
2022-10-01T16:15:26.559Z,7.28
2022-10-01T16:18:02.433Z,7.53
2022-10-01T16:20:56.340Z,6.95
2022-10-01T16:23:50.086Z,10.27
2022-10-01T16:26:32.373Z,10.70
2022-10-01T16:29:14.603Z,5.30
2022-10-01T16:31:45.247Z,5.55
2022-10-01T16:34:18.618Z,10.15
2022-10-01T16:36:46.354Z,8.70
2022-10-01T16:39:14.989Z,6.78
2022-10-01T16:41:56.595Z,8.43
2022-10-01T16:44:38.632Z,6.13
2022-10-01T16:47:05.245Z,7.65
2022-10-01T16:49:31.780Z,7.10
2022-10-01T16:51:58.239Z,9.65
2022-10-01T16:54:26.769Z,8.45
2022-10-01T16:56:55.130Z,10.57
2022-10-01T16:59:23.202Z,7.93
2022-10-01T17:01:53.528Z,9.70
2022-10-01T17:04:21.115Z,5.55
2022-10-01T17:06:48.138Z,9.73
2022-10-01T17:09:14.616Z,8.05
2022-10-01T17:11:42.204Z,9.73
2022-10-01T17:14:16.702Z,10.35
2022-10-01T17:16:43.887Z,9.15
2022-10-01T17:19:10.782Z,10.70
2022-10-01T17:21:39.905Z,7.75
2022-10-01T17:24:32.832Z,4.78
2022-10-01T17:26:59.315Z,8.25
2022-10-01T17:29:26.678Z,7.88
2022-10-01T17:31:53.631Z,8.82
2022-10-01T17:34:22.027Z,9.00
2022-10-01T17:36:48.562Z,14.18
2022-10-01T17:39:15.071Z,6.97
2022-10-01T17:41:41.538Z,6.00
2022-10-01T17:44:09.710Z,6.93
2022-10-01T17:46:36.551Z,7.88
2022-10-01T17:49:03.418Z,6.07
2022-10-01T17:51:29.962Z,9.30
2022-10-01T17:53:57.565Z,10.65
2022-10-01T17:56:24.113Z,11.05
2022-10-01T17:58:53.137Z,11.07
2022-10-01T18:01:21.927Z,9.38
2022-10-01T18:03:56.123Z,10.15
2022-10-01T18:06:24.041Z,8.65
2022-10-01T18:08:55.504Z,11.82
2022-10-01T18:11:25.073Z,10.73
2022-10-01T18:13:53.536Z,9.27
2022-10-01T18:16:20.705Z,7.43
2022-10-01T18:19:51.883Z,16.50
2022-10-01T18:21:34.347Z,10.57
2022-10-01T18:24:04.750Z,9.95
2022-10-01T18:26:32.280Z,8.23
2022-10-01T18:28:59.023Z,7.10
2022-10-01T18:31:27.542Z,7.10
2022-10-01T18:33:59.533Z,6.80
2022-10-01T18:36:32.124Z,8.27
2022-10-01T18:39:28.022Z,12.60
2022-10-01T18:41:54.529Z,10.57
2022-10-01T18:44:22.890Z,9.30
2022-10-01T18:46:54.838Z,8.60
2022-10-01T18:49:43.205Z,11.27
2022-10-01T18:52:37.932Z,9.68
2022-10-01T18:55:25.265Z,12.45
2022-10-01T18:58:18.185Z,10.95
2022-10-01T19:01:20.871Z,11.75
2022-10-01T19:04:14.383Z,10.27
2022-10-01T19:06:46.090Z,11.77
2022-10-01T19:09:32.803Z,10.90
2022-10-01T19:12:33.038Z,10.27
2022-10-01T19:15:07.121Z,9.77
2022-10-01T19:17:50.117Z,10.85
2022-10-01T19:20:46.235Z,10.18
2022-10-01T19:25:57.207Z,7.93
2022-10-01T19:28:29.716Z,8.88
2022-10-01T19:31:01.246Z,13.32
2022-10-01T19:33:33.363Z,10.40
2022-10-01T19:36:01.573Z,6.30
2022-10-01T19:38:40.005Z,11.43
2022-10-01T19:41:20.433Z,16.42
2022-10-01T19:44:04.286Z,12.07
2022-10-01T19:46:40.798Z,12.18
2022-10-01T19:49:08.499Z,15.68
2022-10-01T19:51:39.607Z,13.55
2022-10-01T19:54:16.933Z,14.50
2022-10-01T19:56:48.534Z,11.20
2022-10-01T19:59:19.764Z,7.93
2022-10-01T20:02:03.565Z,9.40
2022-10-01T20:04:40.264Z,11.57
2022-10-01T20:07:30.034Z,10.25
2022-10-01T20:10:05.759Z,13.88
2022-10-01T20:12:46.954Z,10.60
2022-10-01T20:15:30.539Z,10.10
2022-10-01T20:18:33.980Z,10.48
2022-10-01T20:21:06.052Z,7.15
2022-10-01T20:24:07.517Z,11.63
2022-10-01T20:27:02.714Z,10.00
2022-10-01T20:29:38.298Z,8.73
2022-10-01T20:32:10.726Z,10.77
2022-10-01T20:35:03.870Z,12.48
2022-10-01T20:37:48.485Z,11.88
2022-10-01T20:40:27.775Z,12.00
2022-10-01T20:43:09.858Z,7.57
2022-10-01T20:45:39.229Z,10.07
2022-10-01T20:48:17.777Z,9.50
2022-10-01T20:50:47.402Z,9.85
2022-10-01T20:53:22.133Z,13.48
2022-10-01T20:56:01.657Z,15.27
2022-10-01T20:58:44.491Z,13.98
2022-10-01T21:01:32.661Z,9.75
2022-10-01T21:04:06.459Z,11.07
2022-10-01T21:06:42.119Z,10.93
2022-10-01T21:09:35.354Z,9.00
2022-10-01T21:12:07.490Z,7.97
2022-10-01T21:14:40.607Z,13.68
2022-10-01T21:17:39.492Z,13.45
2022-10-01T21:20:24.483Z,11.07
2022-10-01T21:23:28.419Z,11.23
2022-10-01T21:25:57.810Z,13.20
2022-10-01T21:28:54.610Z,13.85
2022-10-01T21:31:24.657Z,10.18
2022-10-01T21:34:41.361Z,11.85
2022-10-01T21:37:16.372Z,13.48
2022-10-01T21:39:56.895Z,13.82
2022-10-01T21:42:35.489Z,15.68
2022-10-01T21:45:20.670Z,15.88
2022-10-01T21:47:49.881Z,10.70
2022-10-01T21:50:22.101Z,10.70
2022-10-01T21:53:28.059Z,14.38
2022-10-01T21:56:20.446Z,10.95
2022-10-01T21:59:06.705Z,12.93
2022-10-01T22:01:44.079Z,11.60
2022-10-01T22:04:40.174Z,12.25
2022-10-01T22:07:28.113Z,16.23
2022-10-01T22:10:13.514Z,13.25
2022-10-01T22:12:45.473Z,15.48
2022-10-01T22:15:23.651Z,15.93
2022-10-01T22:17:53.638Z,14.30
2022-10-01T22:20:24.128Z,15.02
2022-10-01T22:22:56.491Z,14.38
2022-10-01T22:25:23.193Z,15.23
2022-10-01T22:28:05.091Z,12.50
2022-10-01T22:30:36.733Z,9.63
2022-10-01T22:33:14.580Z,19.08
2022-10-01T22:35:48.901Z,17.13
2022-10-01T22:38:21.310Z,16.17
2022-10-01T22:41:01.528Z,10.82
2022-10-01T22:43:28.350Z,14.65
2022-10-01T22:46:30.010Z,18.85
2022-10-01T22:49:03.451Z,12.60
2022-10-01T22:51:37.645Z,10.40
2022-10-01T22:54:22.830Z,12.85
2022-10-01T22:57:07.400Z,14.52
2022-10-01T22:59:49.215Z,16.63
2022-10-01T23:02:29.141Z,12.65
2022-10-01T23:05:14.549Z,14.45
2022-10-01T23:07:51.941Z,16.20
2022-10-01T23:10:29.486Z,14.68
2022-10-01T23:13:19.326Z,12.98
2022-10-01T23:15:52.596Z,16.02
2022-10-01T23:18:36.624Z,18.98
2022-10-01T23:21:35.083Z,9.98
2022-10-01T23:24:11.951Z,18.33
2022-10-01T23:26:44.194Z,16.25
2022-10-01T23:29:28.932Z,18.75
2022-10-01T23:32:17.161Z,16.50
2022-10-01T23:35:28.323Z,21.38
2022-10-01T23:38:18.474Z,20.60
2022-10-01T23:40:48.142Z,12.93
2022-10-01T23:43:35.482Z,20.73
2022-10-01T23:46:19.295Z,18.17
2022-10-01T23:48:56.090Z,21.33
2022-10-01T23:51:34.308Z,17.95
2022-10-01T23:54:15.558Z,19.52
2022-10-01T23:57:07.256Z,16.90
2022-10-01T23:59:48.758Z,22.95
